createdAt,value
2019-05-01T00:01:17.042Z,9.55
2019-05-01T00:03:58.210Z,8.50
2019-05-01T00:06:31.949Z,8.73
2019-05-01T00:09:00.762Z,7.95
2019-05-01T00:11:29.293Z,11.83
2019-05-01T00:13:57.850Z,10.00
2019-05-01T00:16:26.690Z,6.83
2019-05-01T00:18:55.259Z,10.68
2019-05-01T00:21:23.870Z,7.28
2019-05-01T00:23:52.649Z,7.30
2019-05-01T00:26:21.189Z,7.60
2019-05-01T00:28:49.986Z,6.45
2019-05-01T00:31:18.600Z,8.53
2019-05-01T00:33:47.710Z,5.65
2019-05-01T00:36:16.722Z,5.20
2019-05-01T00:38:45.281Z,6.75
2019-05-01T00:41:13.826Z,6.30
2019-05-01T00:43:42.364Z,6.40
2019-05-01T00:46:10.981Z,8.85
2019-05-01T00:48:39.509Z,8.10
2019-05-01T00:51:08.136Z,6.45
2019-05-01T00:53:36.662Z,6.42
2019-05-01T00:56:13.170Z,8.48
2019-05-01T00:59:13.037Z,9.60
2019-05-01T01:01:59.874Z,9.50
2019-05-01T01:04:28.489Z,8.03
2019-05-01T01:06:57.041Z,7.83
2019-05-01T01:09:25.577Z,7.05
2019-05-01T01:11:54.129Z,6.90
2019-05-01T01:14:22.893Z,8.45
2019-05-01T01:16:51.450Z,6.65
2019-05-01T01:19:19.979Z,8.23
2019-05-01T01:21:48.787Z,6.33
2019-05-01T01:24:17.312Z,6.62
2019-05-01T01:26:45.868Z,7.37
2019-05-01T01:29:14.401Z,6.58
2019-05-01T01:31:42.945Z,7.45
2019-05-01T01:34:11.734Z,8.78
2019-05-01T01:36:40.292Z,8.30
2019-05-01T01:39:08.909Z,6.42
2019-05-01T01:41:37.709Z,5.78
2019-05-01T01:44:37.156Z,5.05
2019-05-01T01:47:05.704Z,5.35
2019-05-01T01:49:34.741Z,6.97
2019-05-01T01:52:03.377Z,4.28
2019-05-01T01:54:31.917Z,8.63
2019-05-01T01:57:00.726Z,5.40
2019-05-01T01:59:29.514Z,4.95
2019-05-01T02:02:17.174Z,5.72
2019-05-01T02:04:51.581Z,9.83
2019-05-01T02:07:20.125Z,7.35
2019-05-01T02:09:48.652Z,4.22
2019-05-01T02:12:17.205Z,5.95
2019-05-01T02:14:45.754Z,7.80
2019-05-01T02:17:14.297Z,5.53
2019-05-01T02:19:43.070Z,8.13
2019-05-01T02:22:11.890Z,4.35
2019-05-01T02:24:40.421Z,4.78
2019-05-01T02:27:13.461Z,5.28
2019-05-01T02:29:47.027Z,5.83
2019-05-01T02:32:15.895Z,6.62
2019-05-01T02:34:44.430Z,8.10
2019-05-01T02:37:13.013Z,7.12
2019-05-01T02:39:41.873Z,4.67
2019-05-01T02:42:10.682Z,5.35
2019-05-01T02:44:44.495Z,6.30
2019-05-01T02:47:17.623Z,6.10
2019-05-01T02:49:50.659Z,5.58
2019-05-01T02:52:19.205Z,6.05
2019-05-01T02:54:48.846Z,5.80
2019-05-01T02:57:19.030Z,7.15
2019-05-01T02:59:49.955Z,5.53
2019-05-01T03:02:18.512Z,6.37
2019-05-01T03:04:47.126Z,4.90
2019-05-01T03:07:16.390Z,6.50
2019-05-01T03:09:44.921Z,7.22
2019-05-01T03:12:14.198Z,4.53
2019-05-01T03:14:43.435Z,4.42
2019-05-01T03:17:29.825Z,5.33
2019-05-01T03:20:04.776Z,5.70
2019-05-01T03:22:42.666Z,5.25
2019-05-01T03:25:11.212Z,6.22
2019-05-01T03:27:40.095Z,4.97
2019-05-01T03:30:08.963Z,5.67
2019-05-01T03:32:37.521Z,7.00
2019-05-01T03:35:06.170Z,5.90
2019-05-01T03:37:34.725Z,4.62
2019-05-01T03:40:03.278Z,4.40
2019-05-01T03:42:31.903Z,6.47
2019-05-01T03:45:00.445Z,6.42
2019-05-01T03:47:29.006Z,5.58
2019-05-01T03:49:58.019Z,5.40
2019-05-01T03:52:26.611Z,5.28
2019-05-01T03:54:55.141Z,4.80
2019-05-01T03:57:24.158Z,4.95
2019-05-01T03:59:52.689Z,5.55
2019-05-01T04:02:34.266Z,4.12
2019-05-01T04:05:02.054Z,4.58
2019-05-01T04:07:30.606Z,5.15
2019-05-01T04:09:59.143Z,4.42
2019-05-01T04:12:27.713Z,5.78
2019-05-01T04:14:56.258Z,3.90
2019-05-01T04:17:46.989Z,4.00
2019-05-01T04:20:15.605Z,4.95
2019-05-01T04:22:44.445Z,4.00
2019-05-01T04:25:12.989Z,5.65
2019-05-01T04:27:43.629Z,7.00
2019-05-01T04:30:30.236Z,5.33
2019-05-01T04:33:01.118Z,4.60
2019-05-01T04:35:48.782Z,6.03
2019-05-01T04:38:17.459Z,3.67
2019-05-01T04:40:46.347Z,5.00
2019-05-01T04:43:15.199Z,4.40
2019-05-01T04:45:43.774Z,5.35
2019-05-01T04:48:12.310Z,6.80
2019-05-01T04:50:40.922Z,5.37
2019-05-01T04:53:09.457Z,4.62
2019-05-01T04:55:38.558Z,5.17
2019-05-01T04:58:07.090Z,4.33
2019-05-01T05:00:35.645Z,4.70
2019-05-01T05:03:07.601Z,4.83
2019-05-01T05:05:36.407Z,4.37
2019-05-01T05:08:05.195Z,5.78
2019-05-01T05:10:34.019Z,3.85
2019-05-01T05:13:36.984Z,4.62
2019-05-01T05:16:42.932Z,5.12
2019-05-01T05:19:11.472Z,4.80
2019-05-01T05:21:40.026Z,4.55
2019-05-01T05:24:08.814Z,6.45
2019-05-01T05:26:37.365Z,3.33
2019-05-01T05:29:05.908Z,4.37
2019-05-01T05:31:34.543Z,4.60
2019-05-01T05:34:03.571Z,7.35
2019-05-01T05:36:32.207Z,3.87
2019-05-01T05:39:08.633Z,4.67
2019-05-01T05:41:37.190Z,5.33
2019-05-01T05:44:05.721Z,4.55
2019-05-01T05:46:34.270Z,4.83
2019-05-01T05:49:02.810Z,4.87
2019-05-01T05:51:42.853Z,3.60
2019-05-01T05:54:30.573Z,4.10
2019-05-01T05:57:02.267Z,5.65
2019-05-01T05:59:32.746Z,3.80
2019-05-01T06:02:14.601Z,4.42
2019-05-01T06:04:58.803Z,5.25
2019-05-01T06:07:52.614Z,4.67
2019-05-01T06:10:31.152Z,4.90
2019-05-01T06:13:17.820Z,3.58
2019-05-01T06:16:12.222Z,5.70
2019-05-01T06:18:47.140Z,5.20
2019-05-01T06:21:34.643Z,3.90
2019-05-01T06:24:08.528Z,4.15
2019-05-01T06:26:39.398Z,3.80
2019-05-01T06:29:07.843Z,3.10
2019-05-01T06:31:36.664Z,4.90
2019-05-01T06:34:05.214Z,3.67
2019-05-01T06:36:33.785Z,4.08
2019-05-01T06:39:02.410Z,4.47
2019-05-01T06:41:42.318Z,3.52
2019-05-01T06:44:15.776Z,3.85
2019-05-01T06:46:52.466Z,3.55
2019-05-01T06:49:29.453Z,4.05
2019-05-01T06:51:59.396Z,4.40
2019-05-01T06:54:27.931Z,3.52
2019-05-01T06:56:56.469Z,3.98
2019-05-01T06:59:26.130Z,4.55
2019-05-01T07:01:58.324Z,3.30
2019-05-01T07:04:25.854Z,4.33
2019-05-01T07:06:54.394Z,4.03
2019-05-01T07:09:28.199Z,4.12
2019-05-01T07:11:54.570Z,5.05
2019-05-01T07:14:23.198Z,3.77
2019-05-01T07:16:51.753Z,4.25
2019-05-01T07:19:22.170Z,4.40
2019-05-01T07:21:50.757Z,3.85
2019-05-01T07:24:19.334Z,3.50
2019-05-01T07:26:49.120Z,3.47
2019-05-01T07:29:19.876Z,3.60
2019-05-01T07:31:48.441Z,3.40
2019-05-01T07:34:17.112Z,4.85
2019-05-01T07:36:49.883Z,4.87
2019-05-01T07:39:15.986Z,5.45
2019-05-01T07:41:44.550Z,4.65
2019-05-01T07:44:29.931Z,3.85
2019-05-01T07:47:06.385Z,3.98
2019-05-01T07:49:54.963Z,3.40
2019-05-01T07:52:23.524Z,3.87
2019-05-01T07:54:52.533Z,4.58
2019-05-01T07:57:23.098Z,3.80
2019-05-01T07:59:51.577Z,3.65
2019-05-01T08:02:20.126Z,3.45
2019-05-01T08:04:48.656Z,4.47
2019-05-01T08:07:17.707Z,4.50
2019-05-01T08:09:50.289Z,4.67
2019-05-01T08:12:18.841Z,4.12
2019-05-01T08:14:47.751Z,5.95
2019-05-01T08:17:19.871Z,3.50
2019-05-01T08:19:56.421Z,5.12
2019-05-01T08:22:32.158Z,4.50
2019-05-01T08:25:01.071Z,3.60
2019-05-01T08:27:58.135Z,4.20
2019-05-01T08:30:37.478Z,3.98
2019-05-01T08:33:23.901Z,3.92
2019-05-01T08:35:52.457Z,4.03
2019-05-01T08:38:20.993Z,3.52
2019-05-01T08:40:50.734Z,3.60
2019-05-01T08:43:20.218Z,4.83
2019-05-01T08:46:25.841Z,4.37
2019-05-01T08:49:06.840Z,6.05
2019-05-01T08:51:34.829Z,6.65
2019-05-01T08:54:04.613Z,10.80
2019-05-01T08:56:33.158Z,9.68
2019-05-01T08:59:01.697Z,9.73
2019-05-01T09:01:30.505Z,11.48
2019-05-01T09:04:11.814Z,9.50
2019-05-01T09:06:34.787Z,12.15
2019-05-01T09:09:02.867Z,12.68
2019-05-01T09:11:31.745Z,17.50
2019-05-01T09:14:01.074Z,17.75
2019-05-01T09:16:30.228Z,17.55
2019-05-01T09:18:58.922Z,15.90
2019-05-01T09:21:27.808Z,14.35
2019-05-01T09:23:56.617Z,16.50
2019-05-01T09:26:34.164Z,15.10
2019-05-01T09:29:06.131Z,16.55
2019-05-01T09:31:35.806Z,17.80
2019-05-01T09:34:04.858Z,15.83
2019-05-01T09:36:33.446Z,18.25
2019-05-01T09:39:01.998Z,16.32
2019-05-01T09:41:38.011Z,17.60
2019-05-01T09:44:00.896Z,17.85
2019-05-01T09:46:29.461Z,19.95
2019-05-01T09:48:58.076Z,18.87
2019-05-01T09:51:47.667Z,22.20
2019-05-01T09:54:43.050Z,21.02
2019-05-01T09:57:09.169Z,24.85
2019-05-01T09:59:37.966Z,21.50
2019-05-01T10:02:07.745Z,21.27
2019-05-01T10:04:37.585Z,21.15
2019-05-01T10:07:07.142Z,24.25
2019-05-01T10:09:35.697Z,25.57
2019-05-01T10:12:04.591Z,24.57
2019-05-01T10:14:36.194Z,24.40
2019-05-01T10:17:03.670Z,26.12
2019-05-01T10:19:32.294Z,24.95
2019-05-01T10:22:02.348Z,25.00
2019-05-01T10:24:32.223Z,22.60
2019-05-01T10:27:03.296Z,23.47
2019-05-01T10:29:52.088Z,24.57
2019-05-01T10:32:30.230Z,23.52
2019-05-01T10:35:14.336Z,23.35
2019-05-01T10:37:42.088Z,22.77
2019-05-01T10:40:10.633Z,22.60
2019-05-01T10:42:40.992Z,21.52
2019-05-01T10:45:09.478Z,21.93
2019-05-01T10:47:38.441Z,24.50
2019-05-01T10:50:07.079Z,22.07
2019-05-01T10:52:35.706Z,22.32
2019-05-01T10:55:04.556Z,22.32
2019-05-01T10:57:35.072Z,25.02
2019-05-01T11:00:03.895Z,21.42
2019-05-01T11:02:32.530Z,22.93
2019-05-01T11:05:01.150Z,22.30
2019-05-01T11:07:29.718Z,22.67
2019-05-01T11:09:58.509Z,23.27
2019-05-01T11:12:27.133Z,25.90
2019-05-01T11:14:55.677Z,21.35
2019-05-01T11:17:24.242Z,21.23
2019-05-01T11:19:52.792Z,22.77
2019-05-01T11:22:21.361Z,19.85
2019-05-01T11:24:49.990Z,21.07
2019-05-01T11:27:18.545Z,19.95
2019-05-01T11:29:47.529Z,21.37
2019-05-01T11:32:38.612Z,22.40
2019-05-01T11:35:29.358Z,19.42
2019-05-01T11:38:11.980Z,17.45
2019-05-01T11:40:43.826Z,18.17
2019-05-01T11:43:12.375Z,17.92
2019-05-01T11:45:41.037Z,18.12
2019-05-01T11:48:09.990Z,18.57
2019-05-01T11:50:38.610Z,18.87
2019-05-01T11:53:07.306Z,21.05
2019-05-01T11:55:35.977Z,16.02
2019-05-01T11:58:04.573Z,14.55
2019-05-01T12:00:33.364Z,15.32
2019-05-01T12:03:01.905Z,15.83
2019-05-01T12:05:30.471Z,17.12
2019-05-01T12:07:59.030Z,22.37
2019-05-01T12:10:27.768Z,20.35
2019-05-01T12:12:56.332Z,18.48
2019-05-01T12:15:33.661Z,17.75
2019-05-01T12:18:02.574Z,19.00
2019-05-01T12:20:31.134Z,15.93
2019-05-01T12:22:59.948Z,21.50
2019-05-01T12:25:30.221Z,19.37
2019-05-01T12:28:00.506Z,25.45
2019-05-01T12:30:29.158Z,24.40
2019-05-01T12:32:58.015Z,19.90
2019-05-01T12:35:26.565Z,18.57
2019-05-01T12:37:57.536Z,16.40
2019-05-01T12:40:26.143Z,18.30
2019-05-01T12:42:55.158Z,16.37
2019-05-01T12:45:24.020Z,14.43
2019-05-01T12:47:57.562Z,11.60
2019-05-01T12:50:26.304Z,15.15
2019-05-01T12:53:13.125Z,11.35
2019-05-01T12:56:02.512Z,9.88
2019-05-01T12:58:31.367Z,8.70
2019-05-01T13:01:00.043Z,9.15
2019-05-01T13:03:28.966Z,10.00
2019-05-01T13:05:57.767Z,15.20
2019-05-01T13:08:26.781Z,12.58
2019-05-01T13:10:55.494Z,10.18
2019-05-01T13:13:24.125Z,15.55
2019-05-01T13:15:52.906Z,16.85
2019-05-01T13:18:21.726Z,11.35
2019-05-01T13:20:50.355Z,22.35
2019-05-01T13:23:18.917Z,23.20
2019-05-01T13:25:48.973Z,26.30
2019-05-01T13:28:35.891Z,19.48
2019-05-01T13:31:21.103Z,13.28
2019-05-01T13:33:49.649Z,14.93
2019-05-01T13:36:18.886Z,11.40
2019-05-01T13:38:47.875Z,15.72
2019-05-01T13:41:16.830Z,14.90
2019-05-01T13:43:45.513Z,7.55
2019-05-01T13:46:14.411Z,13.40
2019-05-01T13:48:42.985Z,8.53
2019-05-01T13:51:11.555Z,9.83
2019-05-01T13:53:40.169Z,9.83
2019-05-01T13:56:08.765Z,10.05
2019-05-01T13:58:37.309Z,9.20
2019-05-01T14:01:05.982Z,10.18
2019-05-01T14:03:34.554Z,12.50
2019-05-01T14:06:03.134Z,29.45
2019-05-01T14:08:32.049Z,19.87
2019-05-01T14:11:00.676Z,24.98
2019-05-01T14:13:29.213Z,21.05
2019-05-01T14:15:58.133Z,24.30
2019-05-01T14:18:26.690Z,43.40
2019-05-01T14:21:13.517Z,21.48
2019-05-01T14:24:00.338Z,22.90
2019-05-01T14:26:29.294Z,23.10
2019-05-01T14:28:57.841Z,22.22
2019-05-01T14:31:26.405Z,17.40
2019-05-01T14:33:54.966Z,17.67
2019-05-01T14:36:23.617Z,16.80
2019-05-01T14:38:52.458Z,15.55
2019-05-01T14:41:21.349Z,14.43
2019-05-01T14:43:49.903Z,12.95
2019-05-01T14:46:18.460Z,10.10
2019-05-01T14:48:47.001Z,11.80
2019-05-01T14:51:16.263Z,13.80
2019-05-01T14:53:44.891Z,8.43
2019-05-01T14:56:13.516Z,11.05
2019-05-01T14:58:42.077Z,7.85
2019-05-01T15:01:10.818Z,7.67
2019-05-01T15:03:39.434Z,10.20
2019-05-01T15:06:08.150Z,9.35
2019-05-01T15:08:36.785Z,25.10
2019-05-01T15:11:05.345Z,19.45
2019-05-01T15:13:49.645Z,20.75
2019-05-01T15:16:23.016Z,27.00
2019-05-01T15:19:04.214Z,37.58
2019-05-01T15:21:32.783Z,22.82
2019-05-01T15:24:01.329Z,21.73
2019-05-01T15:26:29.898Z,16.07
2019-05-01T15:28:58.470Z,16.48
2019-05-01T15:31:27.105Z,23.35
2019-05-01T15:33:55.650Z,32.35
2019-05-01T15:36:24.214Z,30.02
2019-05-01T15:38:52.794Z,18.00
2019-05-01T15:41:52.297Z,15.45
2019-05-01T15:44:33.765Z,11.18
2019-05-01T15:47:02.721Z,9.03
2019-05-01T15:49:31.265Z,26.17
2019-05-01T15:52:00.144Z,33.02
2019-05-01T15:54:28.764Z,25.75
2019-05-01T15:56:57.677Z,43.15
2019-05-01T15:59:26.417Z,24.27
2019-05-01T16:01:54.977Z,27.00
2019-05-01T16:04:23.518Z,21.37
2019-05-01T16:06:52.093Z,18.30
2019-05-01T16:09:20.642Z,19.42
2019-05-01T16:12:12.042Z,12.95
2019-05-01T16:14:41.921Z,15.15
2019-05-01T16:17:10.509Z,27.22
2019-05-01T16:19:39.064Z,33.63
2019-05-01T16:22:07.681Z,20.25
2019-05-01T16:24:36.481Z,26.90
2019-05-01T16:27:05.705Z,18.75
2019-05-01T16:29:34.326Z,20.90
2019-05-01T16:32:03.169Z,14.28
2019-05-01T16:34:31.717Z,17.82
2019-05-01T16:37:00.290Z,11.90
2019-05-01T16:39:50.770Z,9.28
2019-05-01T16:42:27.315Z,12.88
2019-05-01T16:44:55.864Z,11.20
2019-05-01T16:47:24.795Z,12.60
2019-05-01T16:49:53.345Z,10.93
2019-05-01T16:52:25.341Z,9.53
2019-05-01T16:54:59.451Z,8.98
2019-05-01T16:57:24.163Z,11.70
2019-05-01T16:59:52.769Z,8.48
2019-05-01T17:02:31.149Z,7.05
2019-05-01T17:05:07.797Z,7.55
2019-05-01T17:07:41.505Z,8.13
2019-05-01T17:10:15.477Z,8.00
2019-05-01T17:12:48.514Z,10.32
2019-05-01T17:15:19.558Z,8.60
2019-05-01T17:17:48.102Z,9.45
2019-05-01T17:20:17.168Z,7.25
2019-05-01T17:22:46.198Z,6.62
2019-05-01T17:25:16.002Z,7.17
2019-05-01T17:27:44.596Z,6.50
2019-05-01T17:30:18.365Z,7.08
2019-05-01T17:32:46.941Z,6.53
2019-05-01T17:35:15.821Z,5.97
2019-05-01T17:37:44.424Z,6.12
2019-05-01T17:40:12.986Z,7.87
2019-05-01T17:42:41.537Z,8.63
2019-05-01T17:45:10.080Z,11.33
2019-05-01T17:47:39.033Z,6.33
2019-05-01T17:50:07.577Z,6.62
2019-05-01T17:52:36.129Z,6.50
2019-05-01T17:55:04.916Z,5.67
2019-05-01T17:57:33.934Z,5.47
2019-05-01T18:00:05.114Z,5.72
2019-05-01T18:02:53.783Z,6.80
2019-05-01T18:05:30.158Z,7.40
2019-05-01T18:07:58.697Z,7.37
2019-05-01T18:10:27.246Z,8.10
2019-05-01T18:12:55.791Z,5.40
2019-05-01T18:15:24.641Z,6.15
2019-05-01T18:17:53.181Z,5.97
2019-05-01T18:20:21.745Z,5.72
2019-05-01T18:23:18.281Z,5.72
2019-05-01T18:25:56.701Z,6.15
2019-05-01T18:28:38.685Z,5.60
2019-05-01T18:31:11.037Z,7.67
2019-05-01T18:33:39.975Z,5.67
2019-05-01T18:36:08.866Z,5.70
2019-05-01T18:38:49.456Z,5.37
2019-05-01T18:41:25.800Z,5.45
2019-05-01T18:43:54.345Z,5.40
2019-05-01T18:46:23.172Z,5.78
2019-05-01T18:48:51.987Z,7.20
2019-05-01T18:51:20.854Z,6.05
2019-05-01T18:53:49.845Z,6.67
2019-05-01T18:56:18.738Z,5.60
2019-05-01T18:58:47.298Z,6.42
2019-05-01T19:01:15.910Z,6.95
2019-05-01T19:03:44.489Z,5.25
2019-05-01T19:06:13.053Z,5.70
2019-05-01T19:08:41.609Z,4.75
2019-05-01T19:11:12.793Z,5.05
2019-05-01T19:13:41.131Z,5.03
2019-05-01T19:16:10.074Z,5.33
2019-05-01T19:18:39.089Z,5.28
2019-05-01T19:21:07.857Z,6.30
2019-05-01T19:23:36.412Z,5.10
2019-05-01T19:26:06.719Z,6.55
2019-05-01T19:28:35.528Z,6.15
2019-05-01T19:31:04.078Z,5.37
2019-05-01T19:33:32.629Z,4.65
2019-05-01T19:36:02.726Z,4.70
2019-05-01T19:38:34.804Z,5.33
2019-05-01T19:41:03.600Z,4.90
2019-05-01T19:43:35.733Z,4.90
2019-05-01T19:46:02.873Z,5.20
2019-05-01T19:48:31.432Z,4.90
2019-05-01T19:51:00.054Z,5.60
2019-05-01T19:53:29.085Z,5.75
2019-05-01T19:55:58.059Z,4.30
2019-05-01T19:58:26.598Z,5.85
2019-05-01T20:00:59.989Z,5.00
2019-05-01T20:03:30.547Z,5.20
2019-05-01T20:06:04.339Z,5.45
2019-05-01T20:08:29.533Z,4.67
2019-05-01T20:10:58.086Z,5.15
2019-05-01T20:13:26.630Z,4.53
2019-05-01T20:15:55.185Z,5.37
2019-05-01T20:18:23.742Z,4.75
2019-05-01T20:20:52.293Z,4.72
2019-05-01T20:23:21.169Z,4.95
2019-05-01T20:25:50.997Z,4.95
2019-05-01T20:28:22.359Z,4.78
2019-05-01T20:30:50.834Z,4.20
2019-05-01T20:33:19.625Z,4.95
2019-05-01T20:35:48.173Z,4.45
2019-05-01T20:38:16.718Z,6.28
2019-05-01T20:40:45.282Z,4.95
2019-05-01T20:43:13.825Z,4.60
2019-05-01T20:45:44.967Z,4.70
2019-05-01T20:48:12.657Z,4.65
2019-05-01T20:50:41.241Z,5.20
2019-05-01T20:53:10.134Z,4.92
2019-05-01T20:55:39.435Z,4.47
2019-05-01T20:58:18.241Z,4.90
2019-05-01T21:00:53.454Z,5.08
2019-05-01T21:03:19.550Z,4.17
2019-05-01T21:06:07.745Z,4.40
2019-05-01T21:08:39.315Z,4.35
2019-05-01T21:11:12.924Z,4.60
2019-05-01T21:13:41.297Z,4.80
2019-05-01T21:16:09.952Z,4.50
2019-05-01T21:18:38.497Z,4.35
2019-05-01T21:21:07.061Z,4.87
2019-05-01T21:23:35.689Z,4.50
2019-05-01T21:26:04.525Z,4.30
2019-05-01T21:28:34.062Z,4.83
2019-05-01T21:31:03.841Z,4.62
2019-05-01T21:33:33.898Z,4.47
2019-05-01T21:36:04.812Z,4.62
2019-05-01T21:38:33.355Z,4.50
2019-05-01T21:41:02.791Z,4.42
2019-05-01T21:43:33.114Z,4.67
2019-05-01T21:46:03.819Z,5.05
2019-05-01T21:48:33.395Z,4.15
2019-05-01T21:51:06.964Z,4.53
2019-05-01T21:53:32.996Z,4.62
2019-05-01T21:56:06.210Z,4.60
2019-05-01T21:58:35.857Z,4.53
2019-05-01T22:01:04.364Z,4.47
2019-05-01T22:03:32.925Z,3.90
2019-05-01T22:06:01.837Z,4.03
2019-05-01T22:08:34.522Z,4.45
2019-05-01T22:11:01.733Z,4.33
2019-05-01T22:13:31.791Z,4.47
2019-05-01T22:16:09.889Z,3.90
2019-05-01T22:18:53.718Z,5.03
2019-05-01T22:21:28.391Z,4.58
2019-05-01T22:24:18.917Z,4.20
2019-05-01T22:26:57.373Z,4.42
2019-05-01T22:29:32.410Z,4.10
2019-05-01T22:32:14.614Z,4.15
2019-05-01T22:34:50.005Z,4.28
2019-05-01T22:37:18.570Z,4.10
2019-05-01T22:39:50.693Z,4.40
2019-05-01T22:42:19.606Z,4.42
2019-05-01T22:44:48.494Z,4.25
2019-05-01T22:47:17.049Z,4.25
2019-05-01T22:49:45.592Z,4.20
2019-05-01T22:52:14.154Z,3.80
2019-05-01T22:54:44.945Z,4.42
2019-05-01T22:57:13.662Z,4.33
2019-05-01T22:59:42.210Z,4.10
2019-05-01T23:02:24.220Z,4.15
2019-05-01T23:04:53.232Z,4.20
2019-05-01T23:07:22.129Z,4.80
2019-05-01T23:09:50.668Z,4.60
2019-05-01T23:12:19.303Z,4.33
2019-05-01T23:14:48.025Z,3.85
2019-05-01T23:17:25.779Z,4.22
2019-05-01T23:19:54.316Z,4.00
2019-05-01T23:22:24.159Z,4.58
2019-05-01T23:24:52.730Z,4.60
2019-05-01T23:27:24.290Z,4.20
2019-05-01T23:29:51.554Z,3.98
2019-05-01T23:32:20.130Z,4.10
2019-05-01T23:34:48.918Z,4.30
2019-05-01T23:37:17.838Z,3.98
2019-05-01T23:39:46.721Z,3.83
2019-05-01T23:42:15.285Z,4.17
2019-05-01T23:44:44.233Z,3.90
2019-05-01T23:47:13.197Z,4.00
2019-05-01T23:49:41.997Z,3.60
2019-05-01T23:52:10.561Z,4.05
2019-05-01T23:54:39.457Z,3.60
2019-05-01T23:57:08.018Z,4.00
2019-05-01T23:59:36.553Z,3.87
